sensor_id;sensor_type;location;lat;lon;timestamp;pressure;altitude;pressure_sealevel;temperature;humidity
19761;BME280;10039;42.632;23.408;2023-02-08T00:00:50;96529.38;;;-2.09;59.96
19761;BME280;10039;42.632;23.408;2023-02-08T00:03:21;96525.03;;;-2.14;60.22
19761;BME280;10039;42.632;23.408;2023-02-08T00:05:47;96504.91;;;-2.26;60.17
19761;BME280;10039;42.632;23.408;2023-02-08T00:08:16;96552.16;;;-2.10;60.24
19761;BME280;10039;42.632;23.408;2023-02-08T00:10:44;96523.50;;;-2.41;60.31
19761;BME280;10039;42.632;23.408;2023-02-08T00:13:14;96529.50;;;-2.27;60.69
19761;BME280;10039;42.632;23.408;2023-02-08T00:15:45;96562.13;;;-2.12;60.46
19761;BME280;10039;42.632;23.408;2023-02-08T00:18:14;96566.06;;;-2.01;60.16
19761;BME280;10039;42.632;23.408;2023-02-08T00:20:42;96536.75;;;-2.11;60.52
19761;BME280;10039;42.632;23.408;2023-02-08T00:23:12;96542.34;;;-2.04;60.12
19761;BME280;10039;42.632;23.408;2023-02-08T00:25:40;96560.53;;;-1.86;59.86
19761;BME280;10039;42.632;23.408;2023-02-08T00:28:13;96557.84;;;-1.94;59.57
19761;BME280;10039;42.632;23.408;2023-02-08T00:30:41;96567.22;;;-1.80;60.19
19761;BME280;10039;42.632;23.408;2023-02-08T00:33:09;96573.41;;;-1.76;59.25
19761;BME280;10039;42.632;23.408;2023-02-08T00:35:39;96574.88;;;-1.83;59.79
19761;BME280;10039;42.632;23.408;2023-02-08T00:38:08;96576.41;;;-1.82;59.77
19761;BME280;10039;42.632;23.408;2023-02-08T00:40:36;96551.53;;;-2.07;59.67
19761;BME280;10039;42.632;23.408;2023-02-08T00:43:04;96569.06;;;-1.94;59.74
19761;BME280;10039;42.632;23.408;2023-02-08T00:45:33;96559.88;;;-2.05;59.60
19761;BME280;10039;42.632;23.408;2023-02-08T00:48:00;96589.56;;;-1.74;59.08
19761;BME280;10039;42.632;23.408;2023-02-08T00:50:27;96575.66;;;-1.83;59.19
19761;BME280;10039;42.632;23.408;2023-02-08T00:52:54;96623.09;;;-1.62;59.73
19761;BME280;10039;42.632;23.408;2023-02-08T00:55:21;96570.72;;;-1.98;60.08
19761;BME280;10039;42.632;23.408;2023-02-08T00:57:48;96563.44;;;-2.01;59.44
19761;BME280;10039;42.632;23.408;2023-02-08T01:00:15;96588.50;;;-1.73;59.77
19761;BME280;10039;42.632;23.408;2023-02-08T01:02:42;96556.00;;;-1.94;59.38
19761;BME280;10039;42.632;23.408;2023-02-08T01:05:09;96599.06;;;-1.64;59.50
19761;BME280;10039;42.632;23.408;2023-02-08T01:07:41;96559.09;;;-1.92;59.50
19761;BME280;10039;42.632;23.408;2023-02-08T01:10:09;96597.66;;;-1.97;60.29
19761;BME280;10039;42.632;23.408;2023-02-08T01:12:38;96607.63;;;-1.86;60.43
19761;BME280;10039;42.632;23.408;2023-02-08T01:15:08;96612.03;;;-1.73;60.20
19761;BME280;10039;42.632;23.408;2023-02-08T01:17:38;96611.66;;;-1.66;60.39
19761;BME280;10039;42.632;23.408;2023-02-08T01:20:08;96559.00;;;-2.00;60.16
19761;BME280;10039;42.632;23.408;2023-02-08T01:22:34;96603.50;;;-1.65;59.82
19761;BME280;10039;42.632;23.408;2023-02-08T01:25:00;96589.34;;;-1.50;59.73
19761;BME280;10039;42.632;23.408;2023-02-08T01:27:28;96566.69;;;-1.55;59.46
19761;BME280;10039;42.632;23.408;2023-02-08T01:29:54;96571.88;;;-1.41;59.68
19761;BME280;10039;42.632;23.408;2023-02-08T01:32:23;96573.59;;;-1.37;59.08
19761;BME280;10039;42.632;23.408;2023-02-08T01:34:52;96571.94;;;-1.33;59.13
19761;BME280;10039;42.632;23.408;2023-02-08T01:37:20;96585.44;;;-1.39;58.58
19761;BME280;10039;42.632;23.408;2023-02-08T01:39:46;96581.66;;;-1.33;58.89
19761;BME280;10039;42.632;23.408;2023-02-08T01:42:18;96599.16;;;-1.20;58.61
19761;BME280;10039;42.632;23.408;2023-02-08T01:47:48;96550.56;;;-1.84;59.49
19761;BME280;10039;42.632;23.408;2023-02-08T01:50:20;96555.22;;;-1.81;59.93
19761;BME280;10039;42.632;23.408;2023-02-08T01:52:49;96614.72;;;-1.37;59.62
19761;BME280;10039;42.632;23.408;2023-02-08T01:55:25;96597.41;;;-1.60;59.46
19761;BME280;10039;42.632;23.408;2023-02-08T01:57:57;96593.91;;;-1.56;59.71
19761;BME280;10039;42.632;23.408;2023-02-08T02:00:27;96578.66;;;-1.76;59.96
19761;BME280;10039;42.632;23.408;2023-02-08T02:02:58;96573.88;;;-1.74;59.84
19761;BME280;10039;42.632;23.408;2023-02-08T02:05:34;96572.94;;;-1.78;59.64
19761;BME280;10039;42.632;23.408;2023-02-08T02:08:05;96620.81;;;-1.42;59.90
19761;BME280;10039;42.632;23.408;2023-02-08T02:10:37;96626.53;;;-1.40;60.03
19761;BME280;10039;42.632;23.408;2023-02-08T02:13:24;96589.56;;;-1.74;60.00
19761;BME280;10039;42.632;23.408;2023-02-08T02:15:53;96605.16;;;-1.69;60.07
19761;BME280;10039;42.632;23.408;2023-02-08T02:18:26;96575.91;;;-1.71;60.15
19761;BME280;10039;42.632;23.408;2023-02-08T02:27:19;96617.38;;;-1.64;60.08
19761;BME280;10039;42.632;23.408;2023-02-08T02:33:04;96624.63;;;-1.48;59.80
19761;BME280;10039;42.632;23.408;2023-02-08T02:43:51;96605.09;;;-1.91;60.31
19761;BME280;10039;42.632;23.408;2023-02-08T02:46:40;96601.22;;;-2.07;60.70
19761;BME280;10039;42.632;23.408;2023-02-08T02:49:14;96643.25;;;-1.63;61.17
19761;BME280;10039;42.632;23.408;2023-02-08T02:52:02;96602.66;;;-2.01;60.67
19761;BME280;10039;42.632;23.408;2023-02-08T02:54:45;96604.31;;;-2.05;60.75
19761;BME280;10039;42.632;23.408;2023-02-08T02:57:30;96608.78;;;-2.05;61.70
19761;BME280;10039;42.632;23.408;2023-02-08T03:00:00;96630.94;;;-1.89;62.51
19761;BME280;10039;42.632;23.408;2023-02-08T03:02:33;96610.50;;;-2.01;62.37
19761;BME280;10039;42.632;23.408;2023-02-08T03:05:06;96614.00;;;-1.92;62.36
19761;BME280;10039;42.632;23.408;2023-02-08T03:13:24;96651.50;;;-1.69;62.84
19761;BME280;10039;42.632;23.408;2023-02-08T03:16:25;96636.09;;;-1.84;63.02
19761;BME280;10039;42.632;23.408;2023-02-08T03:19:48;96619.81;;;-1.95;62.31
19761;BME280;10039;42.632;23.408;2023-02-08T03:22:20;96652.75;;;-1.94;62.15
19761;BME280;10039;42.632;23.408;2023-02-08T03:24:53;96660.00;;;-1.91;62.96
19761;BME280;10039;42.632;23.408;2023-02-08T03:27:30;96670.78;;;-1.92;63.60
19761;BME280;10039;42.632;23.408;2023-02-08T03:30:09;96674.06;;;-2.00;63.39
19761;BME280;10039;42.632;23.408;2023-02-08T03:33:04;96608.47;;;-2.30;63.57
19761;BME280;10039;42.632;23.408;2023-02-08T03:35:40;96612.22;;;-2.36;63.95
19761;BME280;10039;42.632;23.408;2023-02-08T03:38:22;96629.06;;;-2.56;63.59
19761;BME280;10039;42.632;23.408;2023-02-08T03:40:56;96650.38;;;-2.35;63.91
19761;BME280;10039;42.632;23.408;2023-02-08T03:43:34;96647.25;;;-2.37;64.01
19761;BME280;10039;42.632;23.408;2023-02-08T03:48:37;96641.69;;;-2.31;63.59
19761;BME280;10039;42.632;23.408;2023-02-08T03:51:05;96630.44;;;-2.31;64.03
19761;BME280;10039;42.632;23.408;2023-02-08T03:53:36;96662.81;;;-2.01;63.55
19761;BME280;10039;42.632;23.408;2023-02-08T03:56:16;96630.25;;;-2.22;63.72
19761;BME280;10039;42.632;23.408;2023-02-08T03:59:13;96648.38;;;-2.12;63.51
19761;BME280;10039;42.632;23.408;2023-02-08T04:01:50;96643.63;;;-2.23;63.15
19761;BME280;10039;42.632;23.408;2023-02-08T04:04:25;96690.88;;;-2.20;63.77
19761;BME280;10039;42.632;23.408;2023-02-08T04:06:56;96634.75;;;-2.54;63.99
19761;BME280;10039;42.632;23.408;2023-02-08T04:09:26;96669.06;;;-2.28;64.17
19761;BME280;10039;42.632;23.408;2023-02-08T04:11:52;96672.09;;;-2.22;63.72
19761;BME280;10039;42.632;23.408;2023-02-08T04:14:21;96651.88;;;-2.48;63.85
19761;BME280;10039;42.632;23.408;2023-02-08T04:16:49;96655.56;;;-2.49;64.20
19761;BME280;10039;42.632;23.408;2023-02-08T04:19:18;96665.16;;;-2.76;64.90
19761;BME280;10039;42.632;23.408;2023-02-08T04:21:45;96679.53;;;-2.60;65.38
19761;BME280;10039;42.632;23.408;2023-02-08T04:24:19;96660.66;;;-2.57;65.31
19761;BME280;10039;42.632;23.408;2023-02-08T04:26:46;96666.22;;;-2.45;65.13
19761;BME280;10039;42.632;23.408;2023-02-08T04:29:15;96677.31;;;-2.22;64.57
19761;BME280;10039;42.632;23.408;2023-02-08T04:31:41;96699.31;;;-2.09;63.88
19761;BME280;10039;42.632;23.408;2023-02-08T04:34:09;96648.25;;;-2.33;63.89
19761;BME280;10039;42.632;23.408;2023-02-08T04:36:36;96659.41;;;-2.15;63.09
19761;BME280;10039;42.632;23.408;2023-02-08T04:39:04;96686.25;;;-1.96;63.03
19761;BME280;10039;42.632;23.408;2023-02-08T04:41:31;96666.28;;;-2.19;62.65
19761;BME280;10039;42.632;23.408;2023-02-08T04:43:59;96677.75;;;-1.88;62.64
19761;BME280;10039;42.632;23.408;2023-02-08T04:46:26;96654.09;;;-2.10;62.56
19761;BME280;10039;42.632;23.408;2023-02-08T04:48:54;96653.00;;;-2.22;62.42
19761;BME280;10039;42.632;23.408;2023-02-08T04:51:23;96713.06;;;-2.35;62.80
19761;BME280;10039;42.632;23.408;2023-02-08T04:53:53;96668.53;;;-2.76;63.72
19761;BME280;10039;42.632;23.408;2023-02-08T04:56:20;96709.25;;;-2.56;63.93
19761;BME280;10039;42.632;23.408;2023-02-08T04:58:49;96709.06;;;-2.78;64.15
19761;BME280;10039;42.632;23.408;2023-02-08T05:01:16;96712.28;;;-2.68;64.47
19761;BME280;10039;42.632;23.408;2023-02-08T05:03:42;96688.09;;;-2.73;64.37
19761;BME280;10039;42.632;23.408;2023-02-08T05:06:12;96698.72;;;-2.51;63.88
19761;BME280;10039;42.632;23.408;2023-02-08T05:08:42;96734.41;;;-2.28;63.28
19761;BME280;10039;42.632;23.408;2023-02-08T05:11:08;96740.41;;;-2.28;63.66
19761;BME280;10039;42.632;23.408;2023-02-08T05:13:37;96732.13;;;-2.17;63.55
19761;BME280;10039;42.632;23.408;2023-02-08T05:16:03;96702.63;;;-2.35;62.68
19761;BME280;10039;42.632;23.408;2023-02-08T05:18:31;96710.34;;;-2.44;62.58
19761;BME280;10039;42.632;23.408;2023-02-08T05:20:58;96710.38;;;-2.62;62.77
19761;BME280;10039;42.632;23.408;2023-02-08T05:23:25;96740.03;;;-2.53;62.69
19761;BME280;10039;42.632;23.408;2023-02-08T05:25:54;96746.38;;;-2.78;63.12
19761;BME280;10039;42.632;23.408;2023-02-08T05:28:22;96767.91;;;-2.67;63.75
19761;BME280;10039;42.632;23.408;2023-02-08T05:30:51;96715.59;;;-3.36;62.93
19761;BME280;10039;42.632;23.408;2023-02-08T05:33:17;96725.53;;;-3.38;63.48
19761;BME280;10039;42.632;23.408;2023-02-08T05:35:44;96728.59;;;-3.54;63.92
19761;BME280;10039;42.632;23.408;2023-02-08T05:38:10;96733.13;;;-3.65;64.96
19761;BME280;10039;42.632;23.408;2023-02-08T05:40:38;96758.25;;;-3.27;65.02
19761;BME280;10039;42.632;23.408;2023-02-08T05:43:07;96728.50;;;-3.49;64.80
19761;BME280;10039;42.632;23.408;2023-02-08T05:45:33;96762.72;;;-3.28;64.48
19761;BME280;10039;42.632;23.408;2023-02-08T05:48:00;96735.41;;;-3.35;64.10
19761;BME280;10039;42.632;23.408;2023-02-08T05:50:26;96755.69;;;-3.32;63.31
19761;BME280;10039;42.632;23.408;2023-02-08T05:52:52;96770.19;;;-3.44;64.13
19761;BME280;10039;42.632;23.408;2023-02-08T05:55:20;96775.13;;;-3.66;64.90
19761;BME280;10039;42.632;23.408;2023-02-08T05:57:47;96801.38;;;-3.58;65.67
19761;BME280;10039;42.632;23.408;2023-02-08T06:00:15;96766.09;;;-4.02;66.32
19761;BME280;10039;42.632;23.408;2023-02-08T06:02:43;96749.19;;;-4.33;66.83
19761;BME280;10039;42.632;23.408;2023-02-08T06:05:10;96761.25;;;-4.14;67.24
19761;BME280;10039;42.632;23.408;2023-02-08T06:07:36;96761.97;;;-4.37;67.76
19761;BME280;10039;42.632;23.408;2023-02-08T06:10:04;96755.09;;;-4.56;68.42
19761;BME280;10039;42.632;23.408;2023-02-08T06:12:34;96748.00;;;-4.50;68.48
19761;BME280;10039;42.632;23.408;2023-02-08T06:15:03;96751.44;;;-4.55;68.89
19761;BME280;10039;42.632;23.408;2023-02-08T06:17:29;96770.66;;;-4.46;69.30
19761;BME280;10039;42.632;23.408;2023-02-08T06:19:55;96763.06;;;-4.43;69.44
19761;BME280;10039;42.632;23.408;2023-02-08T06:22:21;96726.81;;;-4.67;68.84
19761;BME280;10039;42.632;23.408;2023-02-08T06:24:48;96786.25;;;-4.13;69.40
19761;BME280;10039;42.632;23.408;2023-02-08T06:27:14;96804.47;;;-4.08;69.00
19761;BME280;10039;42.632;23.408;2023-02-08T06:29:40;96769.47;;;-4.30;68.92
19761;BME280;10039;42.632;23.408;2023-02-08T06:32:06;96760.94;;;-4.36;68.86
19761;BME280;10039;42.632;23.408;2023-02-08T06:34:35;96751.53;;;-4.32;68.77
19761;BME280;10039;42.632;23.408;2023-02-08T06:37:01;96826.00;;;-3.97;69.25
19761;BME280;10039;42.632;23.408;2023-02-08T06:39:33;96794.00;;;-4.03;69.04
19761;BME280;10039;42.632;23.408;2023-02-08T06:42:01;96798.31;;;-3.65;68.91
19761;BME280;10039;42.632;23.408;2023-02-08T06:44:29;96760.00;;;-3.93;68.67
19761;BME280;10039;42.632;23.408;2023-02-08T06:46:56;96793.56;;;-3.58;68.83
19761;BME280;10039;42.632;23.408;2023-02-08T06:49:28;96787.25;;;-3.52;68.52
19761;BME280;10039;42.632;23.408;2023-02-08T06:51:55;96757.81;;;-3.34;67.10
19761;BME280;10039;42.632;23.408;2023-02-08T06:54:25;96791.88;;;-3.02;66.84
19761;BME280;10039;42.632;23.408;2023-02-08T06:56:51;96780.69;;;-3.26;65.94
19761;BME280;10039;42.632;23.408;2023-02-08T06:59:22;96775.41;;;-3.21;66.19
19761;BME280;10039;42.632;23.408;2023-02-08T07:01:50;96794.84;;;-2.90;65.82
19761;BME280;10039;42.632;23.408;2023-02-08T07:04:17;96792.94;;;-2.85;65.93
19761;BME280;10039;42.632;23.408;2023-02-08T07:06:49;96770.56;;;-3.09;65.79
19761;BME280;10039;42.632;23.408;2023-02-08T07:09:16;96759.25;;;-2.81;65.86
19761;BME280;10039;42.632;23.408;2023-02-08T07:11:42;96767.19;;;-2.54;65.77
19761;BME280;10039;42.632;23.408;2023-02-08T07:14:13;96830.47;;;-2.21;64.78
19761;BME280;10039;42.632;23.408;2023-02-08T07:16:42;96778.56;;;-2.45;64.72
19761;BME280;10039;42.632;23.408;2023-02-08T07:19:10;96787.81;;;-2.03;64.16
19761;BME280;10039;42.632;23.408;2023-02-08T07:21:36;96810.25;;;-1.83;64.09
19761;BME280;10039;42.632;23.408;2023-02-08T07:24:02;96820.97;;;-1.53;63.33
19761;BME280;10039;42.632;23.408;2023-02-08T07:26:34;96860.47;;;-1.09;63.32
19761;BME280;10039;42.632;23.408;2023-02-08T07:29:01;96781.03;;;-1.58;61.57
19761;BME280;10039;42.632;23.408;2023-02-08T07:31:37;96846.03;;;-1.33;62.66
19761;BME280;10039;42.632;23.408;2023-02-08T07:34:05;96830.22;;;-1.74;63.41
19761;BME280;10039;42.632;23.408;2023-02-08T07:36:31;96837.66;;;-1.49;64.10
19761;BME280;10039;42.632;23.408;2023-02-08T07:38:57;96800.06;;;-1.39;nan
19761;BME280;10039;42.632;23.408;2023-02-08T07:41:25;96848.47;;;-0.83;62.73
19761;BME280;10039;42.632;23.408;2023-02-08T07:43:50;96822.28;;;-0.83;61.96
19761;BME280;10039;42.632;23.408;2023-02-08T07:46:19;96808.22;;;-0.87;61.08
19761;BME280;10039;42.632;23.408;2023-02-08T07:48:50;96828.53;;;-0.57;61.20
19761;BME280;10039;42.632;23.408;2023-02-08T07:51:18;96793.31;;;-0.78;60.73
19761;BME280;10039;42.632;23.408;2023-02-08T07:53:44;96813.09;;;-0.59;60.73
19761;BME280;10039;42.632;23.408;2023-02-08T07:56:15;96797.09;;;-0.57;60.34
19761;BME280;10039;42.632;23.408;2023-02-08T07:58:43;96793.88;;;-0.54;59.48
19761;BME280;10039;42.632;23.408;2023-02-08T08:01:09;96811.84;;;-0.61;59.27
19761;BME280;10039;42.632;23.408;2023-02-08T08:03:35;96816.19;;;-0.57;59.71
19761;BME280;10039;42.632;23.408;2023-02-08T08:06:02;96796.31;;;-0.71;60.24
19761;BME280;10039;42.632;23.408;2023-02-08T08:08:28;96824.56;;;-0.68;61.43
19761;BME280;10039;42.632;23.408;2023-02-08T08:10:54;96843.84;;;-0.15;60.32
19761;BME280;10039;42.632;23.408;2023-02-08T08:13:28;96779.78;;;-0.45;59.38
19761;BME280;10039;42.632;23.408;2023-02-08T08:15:54;96810.16;;;-0.44;59.62
19761;BME280;10039;42.632;23.408;2023-02-08T08:18:28;96843.44;;;-0.44;60.52
19761;BME280;10039;42.632;23.408;2023-02-08T08:21:10;96780.16;;;-1.00;61.31
19761;BME280;10039;42.632;23.408;2023-02-08T08:23:38;96836.38;;;-0.44;60.90
19761;BME280;10039;42.632;23.408;2023-02-08T08:26:16;96785.00;;;-0.80;59.75
19761;BME280;10039;42.632;23.408;2023-02-08T08:28:46;96808.28;;;-0.79;60.34
19761;BME280;10039;42.632;23.408;2023-02-08T08:31:18;96796.75;;;-0.78;61.56
19761;BME280;10039;42.632;23.408;2023-02-08T08:33:44;96842.94;;;0.02;60.14
19761;BME280;10039;42.632;23.408;2023-02-08T08:36:13;96815.97;;;-0.11;60.73
19761;BME280;10039;42.632;23.408;2023-02-08T08:38:41;96817.09;;;0.18;60.48
19761;BME280;10039;42.632;23.408;2023-02-08T08:41:13;96839.38;;;0.51;59.76
19761;BME280;10039;42.632;23.408;2023-02-08T08:43:41;96829.41;;;0.61;58.80
19761;BME280;10039;42.632;23.408;2023-02-08T08:46:08;96855.47;;;0.88;58.48
19761;BME280;10039;42.632;23.408;2023-02-08T08:48:36;96861.72;;;1.01;57.27
19761;BME280;10039;42.632;23.408;2023-02-08T08:51:03;96822.69;;;0.77;56.78
19761;BME280;10039;42.632;23.408;2023-02-08T08:53:33;96807.44;;;0.57;55.75
19761;BME280;10039;42.632;23.408;2023-02-08T08:56:03;96829.84;;;0.55;56.59
19761;BME280;10039;42.632;23.408;2023-02-08T08:58:32;96820.16;;;0.64;55.59
19761;BME280;10039;42.632;23.408;2023-02-08T09:00:59;96830.63;;;0.33;54.93
19761;BME280;10039;42.632;23.408;2023-02-08T09:03:25;96814.91;;;0.11;55.29
19761;BME280;10039;42.632;23.408;2023-02-08T09:05:52;96843.50;;;0.21;56.39
19761;BME280;10039;42.632;23.408;2023-02-08T09:08:18;96851.75;;;0.28;56.75
19761;BME280;10039;42.632;23.408;2023-02-08T09:10:45;96858.78;;;0.19;55.85
19761;BME280;10039;42.632;23.408;2023-02-08T09:13:11;96846.88;;;0.13;56.47
19761;BME280;10039;42.632;23.408;2023-02-08T09:15:46;96835.66;;;-0.01;57.71
19761;BME280;10039;42.632;23.408;2023-02-08T09:18:12;96866.97;;;0.18;56.04
19761;BME280;10039;42.632;23.408;2023-02-08T09:20:39;96835.16;;;-0.03;57.43
19761;BME280;10039;42.632;23.408;2023-02-08T09:23:07;96838.63;;;0.06;56.97
19761;BME280;10039;42.632;23.408;2023-02-08T09:25:35;96846.22;;;0.30;54.73
19761;BME280;10039;42.632;23.408;2023-02-08T09:28:02;96864.06;;;0.41;53.44
19761;BME280;10039;42.632;23.408;2023-02-08T09:30:29;96858.09;;;0.05;54.00
19761;BME280;10039;42.632;23.408;2023-02-08T09:32:56;96835.31;;;0.14;55.64
19761;BME280;10039;42.632;23.408;2023-02-08T09:35:23;96859.28;;;0.43;55.61
19761;BME280;10039;42.632;23.408;2023-02-08T09:37:53;96828.44;;;0.57;55.48
19761;BME280;10039;42.632;23.408;2023-02-08T09:40:25;96836.13;;;0.76;54.26
19761;BME280;10039;42.632;23.408;2023-02-08T09:45:54;96872.09;;;1.06;55.26
19761;BME280;10039;42.632;23.408;2023-02-08T09:48:32;96830.41;;;0.82;54.44
19761;BME280;10039;42.632;23.408;2023-02-08T09:53:54;96846.28;;;0.69;54.35
19761;BME280;10039;42.632;23.408;2023-02-08T09:56:35;96826.00;;;0.61;54.68
19761;BME280;10039;42.632;23.408;2023-02-08T09:59:08;96850.31;;;0.75;55.14
19761;BME280;10039;42.632;23.408;2023-02-08T10:01:37;96834.13;;;0.81;55.24
19761;BME280;10039;42.632;23.408;2023-02-08T10:06:32;96825.59;;;1.06;53.42
19761;BME280;10039;42.632;23.408;2023-02-08T10:09:02;96813.44;;;0.88;53.53
19761;BME280;10039;42.632;23.408;2023-02-08T10:22:25;96858.78;;;1.41;53.57
19761;BME280;10039;42.632;23.408;2023-02-08T10:33:06;96861.91;;;1.60;53.04
19761;BME280;10039;42.632;23.408;2023-02-08T10:35:40;96823.78;;;1.32;52.69
19761;BME280;10039;42.632;23.408;2023-02-08T10:38:29;96831.81;;;1.27;51.23
19761;BME280;10039;42.632;23.408;2023-02-08T10:41:02;96840.19;;;1.29;51.93
19761;BME280;10039;42.632;23.408;2023-02-08T10:43:39;96802.16;;;0.79;52.82
19761;BME280;10039;42.632;23.408;2023-02-08T10:52:00;96807.59;;;0.91;52.14
19761;BME280;10039;42.632;23.408;2023-02-08T10:54:26;96821.06;;;0.98;51.57
19761;BME280;10039;42.632;23.408;2023-02-08T10:57:16;96866.59;;;1.15;51.60
19761;BME280;10039;42.632;23.408;2023-02-08T10:59:49;96837.59;;;0.99;53.35
19761;BME280;10039;42.632;23.408;2023-02-08T11:07:32;96834.50;;;0.97;53.18
19761;BME280;10039;42.632;23.408;2023-02-08T11:13:00;96844.22;;;1.35;52.57
19761;BME280;10039;42.632;23.408;2023-02-08T11:15:50;96830.53;;;1.08;51.25
19761;BME280;10039;42.632;23.408;2023-02-08T11:18:29;96863.22;;;1.32;53.48
19761;BME280;10039;42.632;23.408;2023-02-08T11:21:07;96835.06;;;1.32;51.99
19761;BME280;10039;42.632;23.408;2023-02-08T11:23:39;96821.28;;;0.71;51.24
19761;BME280;10039;42.632;23.408;2023-02-08T11:26:23;96857.50;;;0.91;51.78
19761;BME280;10039;42.632;23.408;2023-02-08T11:31:37;96802.13;;;0.40;52.45
19761;BME280;10039;42.632;23.408;2023-02-08T11:34:07;96820.44;;;0.62;54.10
19761;BME280;10039;42.632;23.408;2023-02-08T11:36:43;96808.28;;;0.75;52.94
19761;BME280;10039;42.632;23.408;2023-02-08T11:39:30;96805.88;;;0.87;53.98
19761;BME280;10039;42.632;23.408;2023-02-08T11:42:01;96820.00;;;0.99;52.28
19761;BME280;10039;42.632;23.408;2023-02-08T11:44:32;96811.63;;;0.97;52.97
19761;BME280;10039;42.632;23.408;2023-02-08T11:47:02;96800.06;;;1.07;52.61
19761;BME280;10039;42.632;23.408;2023-02-08T11:49:36;96812.94;;;1.25;52.75
19761;BME280;10039;42.632;23.408;2023-02-08T11:52:05;96820.91;;;0.95;51.33
19761;BME280;10039;42.632;23.408;2023-02-08T11:54:34;96802.81;;;1.02;53.52
19761;BME280;10039;42.632;23.408;2023-02-08T11:57:10;96859.31;;;1.21;51.47
19761;BME280;10039;42.632;23.408;2023-02-08T11:59:36;96824.06;;;1.22;52.65
19761;BME280;10039;42.632;23.408;2023-02-08T12:02:37;96836.81;;;1.37;52.73
19761;BME280;10039;42.632;23.408;2023-02-08T12:05:10;96828.22;;;1.06;52.16
19761;BME280;10039;42.632;23.408;2023-02-08T12:10:54;96824.66;;;0.72;51.20
19761;BME280;10039;42.632;23.408;2023-02-08T12:16:15;96848.75;;;0.65;52.18
19761;BME280;10039;42.632;23.408;2023-02-08T12:18:50;96852.56;;;0.59;52.33
19761;BME280;10039;42.632;23.408;2023-02-08T12:21:25;96855.25;;;0.46;51.88
19761;BME280;10039;42.632;23.408;2023-02-08T12:24:02;96851.59;;;0.25;53.92
19761;BME280;10039;42.632;23.408;2023-02-08T12:33:00;96852.13;;;0.35;52.91
19761;BME280;10039;42.632;23.408;2023-02-08T12:50:06;96852.28;;;0.39;52.08
19761;BME280;10039;42.632;23.408;2023-02-08T12:52:49;96832.44;;;0.24;53.36
19761;BME280;10039;42.632;23.408;2023-02-08T12:55:29;96853.50;;;0.63;53.22
19761;BME280;10039;42.632;23.408;2023-02-08T12:58:04;96814.16;;;0.19;50.87
19761;BME280;10039;42.632;23.408;2023-02-08T13:00:33;96821.97;;;0.33;51.07
19761;BME280;10039;42.632;23.408;2023-02-08T13:03:23;96838.63;;;0.28;50.06
19761;BME280;10039;42.632;23.408;2023-02-08T13:05:51;96821.94;;;0.24;51.45
19761;BME280;10039;42.632;23.408;2023-02-08T13:11:32;96872.66;;;0.94;51.07
19761;BME280;10039;42.632;23.408;2023-02-08T13:14:13;96839.16;;;0.61;49.57
19761;BME280;10039;42.632;23.408;2023-02-08T13:16:51;96834.31;;;0.85;50.07
19761;BME280;10039;42.632;23.408;2023-02-08T13:22:18;96845.25;;;0.78;48.54
19761;BME280;10039;42.632;23.408;2023-02-08T13:24:46;96885.09;;;1.10;50.64
19761;BME280;10039;42.632;23.408;2023-02-08T13:27:18;96872.88;;;1.06;50.26
19761;BME280;10039;42.632;23.408;2023-02-08T13:29:47;96844.81;;;0.85;49.35
19761;BME280;10039;42.632;23.408;2023-02-08T13:32:27;96886.91;;;1.32;51.14
19761;BME280;10039;42.632;23.408;2023-02-08T13:35:03;96880.34;;;1.21;49.23
19761;BME280;10039;42.632;23.408;2023-02-08T13:37:33;96859.47;;;0.77;46.82
19761;BME280;10039;42.632;23.408;2023-02-08T13:40:15;96855.03;;;-0.10;47.57
19761;BME280;10039;42.632;23.408;2023-02-08T13:42:51;96875.13;;;0.16;49.98
19761;BME280;10039;42.632;23.408;2023-02-08T13:45:33;96845.44;;;0.07;49.80
19761;BME280;10039;42.632;23.408;2023-02-08T13:48:01;96868.56;;;0.27;51.61
19761;BME280;10039;42.632;23.408;2023-02-08T13:53:03;96891.75;;;0.47;48.35
19761;BME280;10039;42.632;23.408;2023-02-08T14:00:35;96853.59;;;0.06;49.44
19761;BME280;10039;42.632;23.408;2023-02-08T14:05:49;96910.78;;;-0.04;49.73
19761;BME280;10039;42.632;23.408;2023-02-08T14:11:10;96873.94;;;-0.35;49.69
19761;BME280;10039;42.632;23.408;2023-02-08T14:16:32;96918.34;;;-0.03;51.54
19761;BME280;10039;42.632;23.408;2023-02-08T14:19:00;96867.09;;;-0.22;51.88
19761;BME280;10039;42.632;23.408;2023-02-08T14:21:32;96883.44;;;-0.25;52.08
19761;BME280;10039;42.632;23.408;2023-02-08T14:24:07;96883.25;;;-0.42;53.29
19761;BME280;10039;42.632;23.408;2023-02-08T14:26:44;96897.63;;;-0.26;52.17
19761;BME280;10039;42.632;23.408;2023-02-08T14:29:20;96869.66;;;-0.44;53.17
19761;BME280;10039;42.632;23.408;2023-02-08T14:31:48;96897.31;;;-0.25;52.14
19761;BME280;10039;42.632;23.408;2023-02-08T14:34:38;96933.19;;;0.01;51.77
19761;BME280;10039;42.632;23.408;2023-02-08T14:37:26;96929.06;;;-0.26;51.95
19761;BME280;10039;42.632;23.408;2023-02-08T14:40:32;96921.16;;;-0.48;52.40
19761;BME280;10039;42.632;23.408;2023-02-08T14:43:39;96898.63;;;-0.90;53.48
19761;BME280;10039;42.632;23.408;2023-02-08T14:49:15;96893.44;;;-1.08;54.94
19761;BME280;10039;42.632;23.408;2023-02-08T14:51:49;96929.19;;;-0.72;54.45
19761;BME280;10039;42.632;23.408;2023-02-08T14:54:33;96904.44;;;-0.93;55.37
19761;BME280;10039;42.632;23.408;2023-02-08T14:57:05;96889.88;;;-1.12;55.00
19761;BME280;10039;42.632;23.408;2023-02-08T14:59:40;96925.69;;;-0.67;55.94
19761;BME280;10039;42.632;23.408;2023-02-08T15:02:19;96909.59;;;-0.74;56.14
19761;BME280;10039;42.632;23.408;2023-02-08T15:04:46;96898.81;;;-0.86;55.47
19761;BME280;10039;42.632;23.408;2023-02-08T15:10:15;96907.75;;;-0.60;56.12
19761;BME280;10039;42.632;23.408;2023-02-08T15:12:53;96888.81;;;-0.57;55.98
19761;BME280;10039;42.632;23.408;2023-02-08T15:15:21;96936.88;;;-0.35;55.09
19761;BME280;10039;42.632;23.408;2023-02-08T15:17:51;96903.66;;;-0.66;54.94
19761;BME280;10039;42.632;23.408;2023-02-08T15:20:29;96908.81;;;-0.61;53.58
19761;BME280;10039;42.632;23.408;2023-02-08T15:25:58;96898.13;;;-0.78;54.28